首页
METAR-TAF:

METAR-TAF

机场 :

Rawlins Municipal Airport (Harvey Field)

Rawlins, 怀俄明州, 美国

纬度: 41-48-20N, 经度: 107-11-59W, 海拔: 2077米

当前天气观测

该预报发布于30分钟前的19:53 UTC
风速4节,风向多变
温度 12°C
湿度 88%
气压 1009 hPa
能見度: 16.1公里
少量云层高于5000英尺

METAR: KRWL 061953Z AUTO VRB04KT 10SM FEW050 12/10 A2980 RMK AO2 RAE38 SLP005 T01220100 PNO $

时间: 14:23 (20:23 UTC)

预报

该预报发布于1小时和1分钟前的19:22 UTC
预报有效从06日的 19点(UTC)到 07日的 18点(UTC)
风速21节,风向西南,有时为31节阵风
能見度: 6.4公里
阴天层高于7000英尺, 积雨云.
轻雾, 附近有雷暴
从 06日的 2030点(UTC)
风速30节,风向西南,有时为45节阵风
能見度: 6.4公里
阴天层高于5000英尺, 积雨云.
雷暴, 大雨
从 06日的 2200点(UTC)
风速27节,风向南转西南,有时为40节阵风
能見度: 10公里
多云层高于7000英尺
小阵雨
从 06日的 2300点(UTC)
风速32节,风向南转西南,有时为45节阵风
能見度: 10公里
散云层高于20000英尺
从 07日的 0500点(UTC)
风速21节,风向西转西南,有时为30节阵风
能見度: 10公里
天空无云

TAF: KRWL 061922Z 0619/0718 23021G31KT 4SM BR VCTS OVC070CB FM062030 23030G45KT 4SM +TSRA OVC050CB FM062200 20027G40KT P6SM -SHRA BKN070 FM062300 21032G45KT P6SM SCT200 FM070500 24021G30KT P6SM SKC

超过4000个机场的气象观测和天气预报(METAR&TAF报告)。

可查询的气象台以黄色和红色小点在地图上表示。

将鼠标移到小点上方,可查看气象台名称。

然后点击查看天气观测和预报。

如需切换地图:点击带黑十字的绿色按钮放大地图;点击带横线的绿色按钮缩小地图;或者点击绿色箭头查看邻近地区的地图。


METAR-TAF: